Time;durP1;ratioP1;P1;durP2;ratioP2;P2;SDS_P1;SDS_P2;PMS_P1;PMS_P2;Temp;Humidity;BMP_temperature;BMP_pressure;BME280_temperature;BME280_humidity;BME280_pressure;Samples;Min_cycle;Max_cycle;Signal;HPM_P1;HPM_P2
2022/06/27 00:00:25;;;;;;;3.30;2.43;;;;;;;24.42;58.59;98479.63;6949738;28;20253;-81
2022/06/27 00:03:47;;;;;;;2.50;2.30;;;;;;;24.30;58.70;98463.53;6950260;28;20250;-80
2022/06/27 00:07:08;;;;;;;2.83;2.30;;;;;;;24.00;59.20;98461.28;6949557;28;20302;-81
2022/06/27 00:10:30;;;;;;;3.13;2.30;;;;;;;23.92;60.06;98480.44;6949077;28;20352;-81
2022/06/27 00:13:53;;;;;;;2.87;2.10;;;;;;;24.14;59.61;98475.13;6949314;28;20316;-83
2022/06/27 00:17:14;;;;;;;2.80;2.10;;;;;;;23.51;59.22;98403.13;6949252;28;20225;-83
2022/06/27 00:20:36;;;;;;;2.03;1.90;;;;;;;24.51;58.50;98535.69;6948356;28;20834;-83
2022/06/27 00:23:57;;;;;;;3.37;1.93;;;;;;;24.46;58.05;98563.31;6952839;28;20269;-84
2022/06/27 00:27:19;;;;;;;4.45;2.00;;;;;;;24.31;58.17;98569.88;6949083;28;20535;-83
2022/06/27 00:30:42;;;;;;;2.17;1.97;;;;;;;23.99;59.78;98525.75;6948380;28;20200;-83
2022/06/27 00:34:04;;;;;;;2.07;1.87;;;;;;;24.79;58.99;98589.81;6949452;28;20310;-84
2022/06/27 00:37:25;;;;;;;3.40;1.90;;;;;;;24.91;58.48;98576.38;6948522;28;20229;-81
2022/06/27 00:40:47;;;;;;;3.47;1.90;;;;;;;24.71;58.12;98610.63;6949883;28;20225;-81
2022/06/27 00:44:09;;;;;;;3.13;1.80;;;;;;;24.38;59.75;98705.41;6975197;28;20272;-81
2022/06/27 00:47:32;;;;;;;2.00;1.60;;;;;;;23.86;60.77;98795.53;6975324;28;20206;-81
2022/06/27 00:50:53;;;;;;;2.53;1.60;;;;;;;23.41;62.29;98837.22;6975068;28;20230;-81
2022/06/27 00:54:15;;;;;;;4.40;1.97;;;;;;;22.95;63.21;98860.63;6975332;28;20289;-80
2022/06/27 00:57:37;;;;;;;6.80;2.20;;;;;;;22.92;64.79;98851.00;6974799;28;20230;-80
2022/06/27 01:00:58;;;;;;;2.43;1.43;;;;;;;21.65;66.24;98773.91;6974912;28;20247;-80
2022/06/27 01:04:21;;;;;;;5.27;1.60;;;;;;;21.55;67.37;98729.22;6975313;28;20662;-80
2022/06/27 01:07:43;;;;;;;5.60;1.77;;;;;;;22.23;66.00;98773.22;6975082;28;20242;-80
2022/06/27 01:11:05;;;;;;;3.17;1.43;;;;;;;22.29;66.19;98763.03;6976012;28;20692;-80
2022/06/27 01:14:26;;;;;;;3.03;1.40;;;;;;;22.84;64.05;98746.28;6975867;28;20293;-80
2022/06/27 01:17:48;;;;;;;4.57;1.90;;;;;;;22.37;64.60;98696.53;6975124;28;20351;-80
2022/06/27 01:21:18;;;;;;;3.23;1.67;;;;;;;21.64;67.85;98662.50;6974150;28;20288;-81
2022/06/27 01:24:41;;;;;;;2.30;1.67;;;;;;;20.83;71.17;98582.56;6977987;28;20211;-80
2022/06/27 01:28:03;;;;;;;1.47;1.37;;;;;;;21.13;70.25;98516.75;6980360;28;20215;-80
2022/06/27 01:31:26;;;;;;;2.90;1.50;;;;;;;21.63;69.35;98523.66;6980947;28;20675;-80
2022/06/27 01:34:47;;;;;;;1.70;1.23;;;;;;;22.24;64.70;98573.56;6980904;28;20212;-81
2022/06/27 01:38:09;;;;;;;2.03;1.20;;;;;;;22.86;64.65;98559.84;6980561;28;20213;-80
2022/06/27 01:41:32;;;;;;;1.67;1.30;;;;;;;22.61;64.01;98555.41;6980939;28;20264;-81
2022/06/27 01:44:54;;;;;;;2.03;1.33;;;;;;;23.10;62.57;98533.19;6980334;28;20251;-81
2022/06/27 01:48:15;;;;;;;1.20;1.10;;;;;;;22.05;65.44;98528.63;6980503;28;20234;-81
2022/06/27 01:51:37;;;;;;;1.80;1.70;;;;;;;22.63;63.29;98519.38;6981021;28;20317;-81
2022/06/27 01:54:59;;;;;;;1.73;1.33;;;;;;;22.72;64.63;98539.66;6980769;28;20209;-81
2022/06/27 01:58:22;;;;;;;2.20;1.60;;;;;;;23.13;63.18;98544.44;6980480;28;20262;-81
2022/06/27 02:01:44;;;;;;;1.30;1.20;;;;;;;23.44;62.15;98528.44;6980880;28;20699;-81
2022/06/27 02:05:07;;;;;;;1.50;1.40;;;;;;;23.36;61.94;98529.09;6981068;28;20223;-81
2022/06/27 02:08:28;;;;;;;2.87;1.50;;;;;;;23.19;62.07;98515.78;6980365;28;20206;-81
2022/06/27 02:11:51;;;;;;;3.27;1.60;;;;;;;23.51;61.88;98496.69;6980934;28;20297;-81
2022/06/27 02:15:14;;;;;;;2.13;1.30;;;;;;;23.40;61.13;98508.94;6981032;28;20663;-81
2022/06/27 02:18:37;;;;;;;3.23;1.40;;;;;;;23.09;62.62;98502.16;6980494;28;20283;-81
2022/06/27 02:22:05;;;;;;;1.90;1.23;;;;;;;23.29;62.14;98493.66;6980056;28;20276;-81
2022/06/27 02:25:26;;;;;;;2.27;1.20;;;;;;;23.40;61.17;98459.41;6981652;28;20556;-81
2022/06/27 02:28:48;;;;;;;3.57;1.43;;;;;;;22.89;61.71;98408.88;6981384;28;20665;-81
2022/06/27 02:32:12;;;;;;;2.77;1.90;;;;;;;23.41;61.01;98477.56;6981204;28;20599;-80
2022/06/27 02:35:34;;;;;;;4.03;1.73;;;;;;;23.49;61.29;98504.41;6980120;28;20696;-81
2022/06/27 02:38:56;;;;;;;2.83;1.43;;;;;;;23.20;61.58;98483.59;6980857;28;20637;-81
2022/06/27 02:42:19;;;;;;;2.20;1.50;;;;;;;22.91;63.78;98489.16;6975647;28;20311;-81
2022/06/27 02:45:41;;;;;;;3.03;1.30;;;;;;;23.12;62.56;98453.97;6980941;28;20291;-80
2022/06/27 02:49:05;;;;;;;2.13;1.50;;;;;;;23.26;62.38;98463.19;6980274;28;20325;-81
2022/06/27 02:52:30;;;;;;;2.40;1.60;;;;;;;23.20;62.26;98467.91;6981422;28;20258;-81
2022/06/27 02:55:54;;;;;;;1.53;1.30;;;;;;;23.22;61.89;98460.19;6982325;28;20217;-81
2022/06/27 02:59:18;;;;;;;2.27;1.43;;;;;;;23.29;61.87;98470.81;6982717;28;20234;-81
2022/06/27 03:02:42;;;;;;;1.73;1.40;;;;;;;23.33;62.05;98478.22;6985036;28;20228;-81
2022/06/27 03:06:07;;;;;;;2.50;2.30;;;;;;;23.48;60.73;98467.00;6982227;28;20197;-80
2022/06/27 03:09:28;;;;;;;3.57;1.37;;;;;;;23.45;60.85;98484.09;6956498;28;20881;-81
2022/06/27 03:12:50;;;;;;;1.47;1.30;;;;;;;23.13;59.92;98474.88;6957244;28;20231;-80
2022/06/27 03:16:13;;;;;;;4.97;1.40;;;;;;;22.93;61.85;98451.19;6958875;28;20209;-81
2022/06/27 03:19:35;;;;;;;1.40;1.27;;;;;;;23.02;61.87;98463.16;6957787;28;20232;-81
2022/06/27 03:22:58;;;;;;;1.77;1.30;;;;;;;23.25;61.11;98480.81;6957876;28;20228;-80
2022/06/27 03:26:22;;;;;;;1.67;1.30;;;;;;;22.90;60.57;98439.94;6957470;28;20208;-81
2022/06/27 03:29:44;;;;;;;1.73;1.33;;;;;;;22.86;61.55;98463.63;6968462;28;20212;-81
2022/06/27 03:33:05;;;;;;;1.90;1.40;;;;;;;22.89;62.11;98482.31;6974143;28;20287;-82
2022/06/27 03:36:27;;;;;;;1.37;1.20;;;;;;;22.89;62.53;98485.84;6961164;28;20235;-81
2022/06/27 03:39:50;;;;;;;1.47;1.37;;;;;;;23.03;61.89;98491.47;6966699;28;20258;-81
2022/06/27 03:43:11;;;;;;;4.03;1.67;;;;;;;22.89;62.04;98496.84;6973926;28;20222;-82
2022/06/27 03:46:33;;;;;;;1.87;1.60;;;;;;;22.94;61.83;98499.56;6973598;28;20234;-81
2022/06/27 03:50:03;;;;;;;2.33;1.30;;;;;;;23.09;61.19;98502.16;6953648;28;20231;-81
2022/06/27 03:53:25;;;;;;;1.97;1.57;;;;;;;23.01;61.41;98504.72;6952297;28;20703;-81
2022/06/27 03:56:48;;;;;;;2.20;1.50;;;;;;;23.07;61.86;98523.59;6952623;28;20285;-81
2022/06/27 04:00:10;;;;;;;2.63;1.70;;;;;;;23.29;61.65;98520.34;6951312;28;20820;-81
2022/06/27 04:03:32;;;;;;;1.97;1.40;;;;;;;23.10;62.37;98512.03;6951444;28;20269;-81
2022/06/27 04:06:53;;;;;;;1.60;1.50;;;;;;;23.02;62.28;98493.41;6959580;28;20206;-81
2022/06/27 04:10:15;;;;;;;2.60;1.63;;;;;;;22.86;62.11;98478.22;6978338;28;20209;-81
2022/06/27 04:13:38;;;;;;;2.10;1.73;;;;;;;23.21;61.30;98499.00;6978947;28;20244;-81
2022/06/27 04:17:00;;;;;;;2.00;1.80;;;;;;;23.24;60.46;98452.47;6978730;28;20677;-81
2022/06/27 04:20:22;;;;;;;2.10;1.43;;;;;;;22.95;61.44;98434.38;6977021;28;20229;-81
2022/06/27 04:23:43;;;;;;;1.97;1.60;;;;;;;23.20;61.91;98492.66;6979585;28;20231;-81
2022/06/27 04:27:05;;;;;;;1.63;1.53;;;;;;;23.43;60.75;98472.56;6979619;28;20608;-81
2022/06/27 04:30:29;;;;;;;1.93;1.40;;;;;;;23.37;62.01;98489.44;6978316;28;20285;-81
2022/06/27 04:33:51;;;;;;;2.23;1.83;;;;;;;23.32;62.08;98473.84;6978300;28;20225;-81
2022/06/27 04:37:13;;;;;;;3.40;2.00;;;;;;;23.57;62.10;98492.75;6978621;28;20659;-81
2022/06/27 04:40:35;;;;;;;2.77;1.67;;;;;;;23.40;62.50;98477.84;6978110;28;20236;-81
2022/06/27 04:43:56;;;;;;;1.70;1.60;;;;;;;23.15;63.57;98470.72;6978221;28;20260;-80
2022/06/27 04:47:20;;;;;;;2.07;1.80;;;;;;;23.75;62.81;98456.16;6978355;28;20593;-80
2022/06/27 04:50:42;;;;;;;1.70;1.60;;;;;;;24.19;61.35;98458.50;6975382;28;20575;-81
2022/06/27 04:54:03;;;;;;;1.50;1.40;;;;;;;24.74;58.04;98471.34;6975142;28;20237;-81
2022/06/27 04:57:25;;;;;;;1.40;1.30;;;;;;;24.85;57.37;98456.22;6977956;28;20233;-81
2022/06/27 05:00:47;;;;;;;1.33;1.10;;;;;;;24.99;56.58;98459.81;6976903;28;20800;-81
2022/06/27 05:04:10;;;;;;;4.10;1.10;;;;;;;25.21;55.87;98457.97;6981694;28;20211;-82
2022/06/27 05:07:32;;;;;;;1.67;1.37;;;;;;;25.27;55.41;98454.03;6968082;28;20196;-82
2022/06/27 05:10:53;;;;;;;1.67;1.20;;;;;;;25.43;54.47;98448.97;6950010;28;20242;-82
2022/06/27 05:14:15;;;;;;;3.37;1.20;;;;;;;25.39;56.03;98470.88;6950120;28;20226;-82
2022/06/27 05:17:36;;;;;;;3.53;1.20;;;;;;;26.00;53.83;98468.41;6950897;28;20226;-82
2022/06/27 05:21:00;;;;;;;1.30;1.20;;;;;;;25.93;52.70;98447.84;6949414;28;20230;-82
2022/06/27 05:24:22;;;;;;;2.03;1.40;;;;;;;26.08;52.85;98467.63;6948927;28;20310;-82
2022/06/27 05:27:44;;;;;;;1.90;1.40;;;;;;;25.88;55.15;98450.69;6948093;28;20298;-82
2022/06/27 05:31:06;;;;;;;2.33;1.40;;;;;;;26.39;52.46;98451.13;6972679;28;20194;-85
2022/06/27 05:34:27;;;;;;;1.30;1.20;;;;;;;26.90;52.41;98490.97;6981918;28;20286;-84
2022/06/27 05:37:50;;;;;;;2.27;1.50;;;;;;;26.47;51.65;98513.94;6961497;28;20222;-80
2022/06/27 05:41:12;;;;;;;1.73;1.20;;;;;;;25.42;53.96;98525.44;6985963;28;20221;-82
2022/06/27 05:44:34;;;;;;;2.10;1.10;;;;;;;24.63;56.79;98514.81;6983155;28;20208;-82
2022/06/27 05:48:00;;;;;;;1.80;1.27;;;;;;;25.32;56.88;98544.97;6977237;28;20213;-81
2022/06/27 05:51:22;;;;;;;2.57;1.40;;;;;;;25.24;56.78;98542.94;6976824;28;20210;-82
2022/06/27 05:54:46;;;;;;;1.83;1.10;;;;;;;25.56;56.86;98583.44;6982341;28;20205;-81
2022/06/27 05:58:10;;;;;;;2.40;1.60;;;;;;;25.39;56.58;98552.84;6980250;28;20237;-84
2022/06/27 06:01:31;;;;;;;1.70;1.60;;;;;;;25.15;55.90;98599.13;6982434;28;20283;-82
2022/06/27 06:04:53;;;;;;;4.60;1.60;;;;;;;25.56;57.53;98606.34;6980704;28;20234;-83
2022/06/27 06:08:15;;;;;;;3.43;1.90;;;;;;;25.51;56.80;98598.16;6982057;28;20223;-81
2022/06/27 06:11:38;;;;;;;4.13;2.20;;;;;;;25.29;57.23;98611.00;6985503;28;20372;-83
2022/06/27 06:15:02;;;;;;;4.97;2.10;;;;;;;24.86;59.13;98602.13;6987791;28;20216;-83
2022/06/27 06:18:23;;;;;;;3.63;2.00;;;;;;;24.72;58.93;98590.19;6986133;28;20205;-82
2022/06/27 06:21:45;;;;;;;3.97;2.30;;;;;;;24.72;59.51;98625.25;6986114;28;20241;-81
2022/06/27 06:25:07;;;;;;;2.87;2.23;;;;;;;24.76;58.46;98595.94;6986264;28;20193;-83
2022/06/27 06:28:31;;;;;;;4.33;2.73;;;;;;;25.07;58.66;98650.28;6986042;28;20200;-81
2022/06/27 06:31:53;;;;;;;3.37;2.33;;;;;;;24.61;60.04;98637.56;6985818;28;20224;-84
2022/06/27 06:35:15;;;;;;;3.27;2.40;;;;;;;24.49;60.45;98620.63;6985831;28;20221;-83
2022/06/27 06:38:38;;;;;;;4.03;2.33;;;;;;;24.51;60.25;98640.44;6977987;28;20299;-81
2022/06/27 06:42:00;;;;;;;5.40;2.10;;;;;;;24.93;59.25;98643.91;6987226;28;20220;-82
2022/06/27 06:45:23;;;;;;;3.23;1.70;;;;;;;25.44;57.77;98641.09;6984639;28;20208;-82
2022/06/27 06:48:44;;;;;;;1.80;1.53;;;;;;;25.17;57.55;98641.84;6980176;28;20213;-82
2022/06/27 06:52:06;;;;;;;1.80;1.70;;;;;;;25.03;58.19;98618.94;6978989;28;20227;-82
2022/06/27 06:55:29;;;;;;;1.67;1.23;;;;;;;25.37;57.30;98638.72;6977232;28;20200;-82
2022/06/27 06:58:51;;;;;;;1.83;1.50;;;;;;;25.67;56.61;98648.38;6975086;28;20201;-82
2022/06/27 07:02:15;;;;;;;1.97;1.77;;;;;;;25.43;56.32;98645.00;6976968;28;20273;-82
2022/06/27 07:05:37;;;;;;;4.10;1.80;;;;;;;25.10;56.94;98630.38;6979390;28;20202;-81
2022/06/27 07:09:00;;;;;;;1.93;1.53;;;;;;;25.97;56.15;98650.56;6968254;28;20209;-81
2022/06/27 07:12:21;;;;;;;1.67;1.27;;;;;;;25.47;56.08;98652.34;6959627;28;20225;-81
2022/06/27 07:15:45;;;;;;;3.13;1.30;;;;;;;25.59;55.76;98662.91;6971429;28;20245;-81
2022/06/27 07:19:08;;;;;;;1.97;1.20;;;;;;;24.97;56.08;98667.03;6978727;28;20204;-80
2022/06/27 07:22:30;;;;;;;3.00;1.20;;;;;;;24.87;56.48;98663.59;6978909;28;20274;-82
2022/06/27 07:25:52;;;;;;;1.50;1.40;;;;;;;25.25;56.51;98665.19;6976575;28;20567;-82
2022/06/27 07:29:14;;;;;;;1.10;1.10;;;;;;;26.31;53.58;98628.81;6977455;28;20628;-82
2022/06/27 07:32:35;;;;;;;3.83;1.33;;;;;;;26.43;53.59;98629.88;6977507;28;20587;-79
2022/06/27 07:35:58;;;;;;;1.23;1.23;;;;;;;26.32;53.45;98644.28;6979291;28;20658;-82
2022/06/27 07:39:20;;;;;;;1.53;1.23;;;;;;;26.36;53.39;98646.09;6980366;28;20198;-80
2022/06/27 07:42:42;;;;;;;2.20;1.50;;;;;;;26.86;51.89;98664.31;6991041;28;20222;-82
2022/06/27 07:46:04;;;;;;;2.10;1.30;;;;;;;27.23;51.64;98663.94;6995115;28;20183;-81
2022/06/27 07:49:25;;;;;;;1.90;1.20;;;;;;;26.16;52.95;98665.91;6982942;28;20207;-81
2022/06/27 07:56:28;;;;;;;2.73;1.23;;;;;;;26.59;53.59;98669.09;6984480;28;20178;-81
2022/06/27 07:59:51;;;;;;;1.73;1.50;;;;;;;26.57;51.99;98685.19;6980086;28;20202;-82
2022/06/27 08:06:53;;;;;;;1.70;1.60;;;;;;;25.40;55.49;98685.06;6981714;28;20194;-82
2022/06/27 08:10:16;;;;;;;1.83;1.40;;;;;;;24.68;56.02;98641.56;6981123;28;20202;-81
2022/06/27 08:13:38;;;;;;;1.43;1.37;;;;;;;25.23;55.98;98695.81;6981997;28;20229;-81
2022/06/27 08:17:00;;;;;;;1.20;1.20;;;;;;;25.29;56.22;98688.28;6982921;28;20208;-81
2022/06/27 08:20:21;;;;;;;2.20;1.40;;;;;;;24.67;57.20;98703.34;6980341;28;20317;-81
2022/06/27 08:23:44;;;;;;;1.97;1.60;;;;;;;25.28;55.70;98719.78;6981222;28;20229;-82
2022/06/27 08:27:07;;;;;;;4.37;1.90;;;;;;;25.36;56.27;98716.34;6982119;28;20211;-81
2022/06/27 08:30:29;;;;;;;1.57;1.43;;;;;;;25.63;54.99;98722.75;6990582;28;20212;-82
2022/06/27 08:33:51;;;;;;;1.60;1.50;;;;;;;25.95;54.88;98732.94;6993828;28;20233;-82
2022/06/27 08:37:13;;;;;;;1.40;1.30;;;;;;;25.92;55.29;98731.63;6984697;28;20232;-81
2022/06/27 08:40:35;;;;;;;1.10;1.10;;;;;;;27.60;51.42;98713.38;6991906;28;20220;-81
2022/06/27 08:44:00;;;;;;;1.03;1.03;;;;;;;27.61;50.04;98731.63;6993132;28;20252;-82
2022/06/27 08:47:22;;;;;;;1.37;1.27;;;;;;;27.36;50.61;98735.06;6960967;28;20198;-81
2022/06/27 08:50:45;;;;;;;1.40;1.30;;;;;;;27.49;50.91;98745.22;6953103;28;20222;-82
2022/06/27 08:54:06;;;;;;;1.50;1.30;;;;;;;26.73;50.85;98736.28;6953668;28;20305;-80
2022/06/27 08:57:28;;;;;;;1.67;1.10;;;;;;;26.47;51.43;98737.94;6950230;28;20813;-79
2022/06/27 09:00:51;;;;;;;1.60;1.50;;;;;;;26.16;51.46;98696.31;6950871;28;20234;-81
2022/06/27 09:04:13;;;;;;;1.60;1.50;;;;;;;26.26;53.51;98737.53;6955520;28;20303;-81
2022/06/27 09:07:47;;;;;;;2.63;1.53;;;;;;;26.56;52.15;98734.19;6976298;28;20285;-80
2022/06/27 09:11:09;;;;;;;1.50;1.30;;;;;;;26.75;52.19;98740.38;6977195;28;20620;-81
2022/06/27 09:14:34;;;;;;;1.40;1.30;;;;;;;27.17;50.08;98730.81;6977835;28;20210;-81
2022/06/27 09:18:03;;;;;;;1.50;1.40;;;;;;;26.23;51.34;98753.91;6976090;28;20616;-80
2022/06/27 09:21:25;;;;;;;2.10;1.70;;;;;;;27.46;49.62;98750.59;6976500;28;20216;-82
2022/06/27 09:25:06;;;;;;;1.60;1.50;;;;;;;27.67;49.01;98765.56;6977298;28;20218;-80
2022/06/27 09:28:39;;;;;;;1.70;1.60;;;;;;;27.42;49.75;98757.91;6977080;28;20248;-82
2022/06/27 09:32:11;;;;;;;2.20;1.60;;;;;;;27.26;49.03;98753.88;6976491;28;20222;-83
2022/06/27 09:35:38;;;;;;;1.70;1.60;;;;;;;27.35;49.39;98729.81;6976942;28;20211;-82
2022/06/27 09:39:01;;;;;;;2.53;1.70;;;;;;;26.39;52.22;98747.78;6976928;28;20191;-80
2022/06/27 09:42:24;;;;;;;1.90;1.80;;;;;;;26.04;53.41;98756.81;6976779;28;20230;-82
2022/06/27 09:45:46;;;;;;;1.70;1.60;;;;;;;25.33;54.82;98758.34;6977991;28;20224;-81
2022/06/27 09:49:10;;;;;;;1.90;1.80;;;;;;;25.24;55.89;98760.16;6993319;28;20190;-84
2022/06/27 09:52:33;;;;;;;2.00;1.83;;;;;;;24.84;57.32;98753.28;6998751;28;20279;-81
2022/06/27 09:55:55;;;;;;;2.90;1.90;;;;;;;26.23;53.98;98745.63;6991193;28;20202;-81
2022/06/27 09:59:18;;;;;;;1.70;1.60;;;;;;;27.54;50.64;98709.09;6992422;28;20217;-79
2022/06/27 10:02:39;;;;;;;2.53;1.70;;;;;;;28.13;48.77;98744.63;6987356;28;20321;-80
2022/06/27 10:06:01;;;;;;;1.70;1.60;;;;;;;28.99;46.25;98745.69;6980721;28;20679;-80
2022/06/27 10:09:25;;;;;;;2.10;1.50;;;;;;;29.01;47.76;98751.78;6978961;28;20225;-83
2022/06/27 10:12:57;;;;;;;2.97;1.80;;;;;;;29.27;46.80;98752.56;6980539;28;20222;-80
2022/06/27 10:16:19;;;;;;;1.60;1.50;;;;;;;28.35;47.61;98763.97;6964759;28;20213;-81
2022/06/27 10:20:00;;;;;;;1.63;1.53;;;;;;;29.27;46.13;98774.78;6953120;28;20239;-80
2022/06/27 10:23:31;;;;;;;1.63;1.53;;;;;;;28.98;46.14;98774.63;6954255;28;20247;-80
2022/06/27 10:26:56;;;;;;;1.97;1.50;;;;;;;27.11;50.85;98779.09;6952931;28;20208;-79
2022/06/27 10:30:38;;;;;;;1.93;1.77;;;;;;;28.75;48.33;98789.72;6951648;28;20255;-82
2022/06/27 10:34:00;;;;;;;2.00;1.90;;;;;;;28.30;47.65;98805.72;6959504;28;20215;-80
2022/06/27 10:37:35;;;;;;;2.27;1.80;;;;;;;27.44;49.23;98828.47;6980014;28;20238;-80
2022/06/27 10:40:57;;;;;;;2.97;2.10;;;;;;;28.62;47.34;98827.59;6978675;28;20254;-80
2022/06/27 10:44:31;;;;;;;2.70;2.50;;;;;;;28.95;45.54;98831.59;6975256;28;20242;-80
2022/06/27 10:47:54;;;;;;;1.90;1.80;;;;;;;29.26;44.14;98817.59;6978109;28;20192;-81
2022/06/27 10:51:22;;;;;;;2.30;2.10;;;;;;;29.01;43.86;98818.41;6970903;28;20200;-80
2022/06/27 10:54:44;;;;;;;2.43;1.97;;;;;;;28.51;44.74;98804.03;6978315;28;20194;-81
2022/06/27 10:58:20;;;;;;;2.27;2.10;;;;;;;29.11;44.29;98824.47;6959170;28;20286;-81
2022/06/27 11:01:44;;;;;;;3.63;2.07;;;;;;;29.33;44.02;98829.88;6969859;28;20234;-80
2022/06/27 11:05:06;;;;;;;2.63;1.80;;;;;;;29.24;43.08;98808.78;6979578;28;20422;-80
2022/06/27 11:08:29;;;;;;;2.63;1.80;;;;;;;28.58;44.63;98829.34;6974688;28;20281;-82
2022/06/27 11:11:56;;;;;;;2.17;1.77;;;;;;;26.76;48.77;98804.81;6952332;28;20367;-80
2022/06/27 11:15:18;;;;;;;2.10;1.90;;;;;;;27.27;48.17;98822.78;6952399;28;20669;-81
2022/06/27 11:18:46;;;;;;;2.03;1.93;;;;;;;27.88;46.94;98819.34;6951829;28;20232;-80
2022/06/27 11:22:19;;;;;;;2.07;1.87;;;;;;;27.98;46.19;98825.47;6952278;28;20226;-80
2022/06/27 11:25:49;;;;;;;3.07;2.17;;;;;;;27.91;46.13;98838.13;6959639;28;20571;-80
2022/06/27 11:32:56;;;;;;;2.90;2.10;;;;;;;28.02;45.80;98845.84;6952103;28;20223;-81
2022/06/27 11:36:19;;;;;;;3.73;2.27;;;;;;;28.10;45.82;98852.59;6979271;28;20326;-81
2022/06/27 11:39:41;;;;;;;1.97;1.80;;;;;;;27.25;47.04;98822.25;6975662;28;20210;-81
2022/06/27 11:43:03;;;;;;;2.53;2.33;;;;;;;27.80;46.20;98837.56;6979651;28;20233;-81
2022/06/27 11:46:27;;;;;;;1.93;1.67;;;;;;;27.26;46.72;98843.28;6979062;28;20199;-82
2022/06/27 11:49:48;;;;;;;1.90;1.80;;;;;;;26.75;47.31;98845.50;6978929;28;20210;-81
2022/06/27 11:53:11;;;;;;;1.80;1.70;;;;;;;27.18;47.05;98846.00;6979094;28;20230;-80
2022/06/27 11:56:36;;;;;;;2.10;1.80;;;;;;;27.01;47.28;98840.25;6999728;28;20199;-85
2022/06/27 11:59:58;;;;;;;2.93;1.80;;;;;;;26.68;48.99;98847.88;6985809;28;20203;-81
2022/06/27 12:03:19;;;;;;;2.20;2.00;;;;;;;26.73;48.19;98841.41;6978915;28;20241;-80
2022/06/27 12:06:45;;;;;;;4.17;2.20;;;;;;;26.44;49.71;98846.41;6979206;28;20233;-81
2022/06/27 12:10:09;;;;;;;2.00;1.90;;;;;;;26.99;48.35;98848.88;6980101;28;20280;-82
2022/06/27 12:13:31;;;;;;;2.20;2.00;;;;;;;27.39;47.26;98839.66;6975651;28;20302;-81
2022/06/27 12:16:54;;;;;;;2.07;1.97;;;;;;;26.97;47.62;98856.66;6951366;28;20685;-81
2022/06/27 12:20:15;;;;;;;2.00;1.90;;;;;;;26.70;48.22;98851.16;6951394;28;20218;-82
2022/06/27 12:23:37;;;;;;;3.30;2.50;;;;;;;26.88;48.58;98866.81;6951429;28;20227;-80
2022/06/27 12:27:00;;;;;;;2.97;2.30;;;;;;;26.32;49.04;98843.31;6950943;28;20291;-81
2022/06/27 12:30:22;;;;;;;2.53;2.33;;;;;;;26.18;49.54;98865.41;6951705;28;20691;-81
2022/06/27 12:33:45;;;;;;;2.50;2.30;;;;;;;26.19;50.02;98878.09;6968770;28;20221;-83
2022/06/27 12:37:07;;;;;;;3.50;2.50;;;;;;;26.23;49.49;98878.31;6975623;28;20220;-81
2022/06/27 12:40:29;;;;;;;2.23;2.13;;;;;;;26.42;48.87;98876.31;6978438;28;20738;-81
2022/06/27 12:43:52;;;;;;;2.63;2.43;;;;;;;26.78;47.89;98878.09;6978115;28;20235;-81
2022/06/27 12:47:14;;;;;;;2.60;2.40;;;;;;;26.25;49.28;98851.22;6960427;28;20685;-81
2022/06/27 12:50:36;;;;;;;3.00;2.70;;;;;;;26.37;48.79;98848.75;6950179;28;20197;-81
2022/06/27 12:53:59;;;;;;;2.73;2.53;;;;;;;26.50;48.65;98881.13;6949939;28;20729;-80
2022/06/27 12:57:21;;;;;;;3.37;2.50;;;;;;;26.73;48.80;98877.38;6950065;28;20207;-81
2022/06/27 13:00:44;;;;;;;3.57;2.50;;;;;;;26.85;47.63;98870.19;6970877;28;20202;-81
2022/06/27 13:04:06;;;;;;;3.00;2.70;;;;;;;26.76;47.97;98890.59;6978155;28;20712;-81
2022/06/27 13:07:27;;;;;;;3.20;2.90;;;;;;;26.02;47.94;98813.50;6977999;28;20222;-82
2022/06/27 13:10:49;;;;;;;3.10;2.63;;;;;;;26.30;48.25;98889.81;6978098;28;20293;-81
2022/06/27 13:14:11;;;;;;;3.87;2.60;;;;;;;26.39;48.14;98902.63;6978275;28;20301;-81
2022/06/27 13:17:33;;;;;;;2.77;2.57;;;;;;;26.72;47.14;98875.75;6978642;28;20216;-81
2022/06/27 13:20:55;;;;;;;4.23;2.70;;;;;;;26.88;47.47;98896.41;6978183;28;20269;-81
2022/06/27 13:24:17;;;;;;;3.43;2.40;;;;;;;26.46;48.32;98908.59;6981127;28;20233;-82
2022/06/27 13:27:38;;;;;;;2.40;2.20;;;;;;;26.28;47.74;98903.09;6989076;28;20201;-82
2022/06/27 13:31:00;;;;;;;3.40;1.90;;;;;;;26.53;46.65;98903.47;6984774;28;20264;-80
2022/06/27 13:34:23;;;;;;;2.90;2.10;;;;;;;26.61;46.56;98919.38;6982137;28;20340;-81
2022/06/27 13:37:44;;;;;;;1.83;1.73;;;;;;;26.46;46.98;98880.09;6989832;28;20210;-82
2022/06/27 13:41:06;;;;;;;1.90;1.80;;;;;;;26.68;46.44;98916.22;6989483;28;20724;-81
2022/06/27 13:44:28;;;;;;;3.27;2.17;;;;;;;26.50;47.13;98917.09;6983505;28;20296;-81
2022/06/27 13:47:49;;;;;;;1.80;1.70;;;;;;;26.92;46.04;98920.44;6991331;28;20209;-82
2022/06/27 13:51:12;;;;;;;3.37;1.90;;;;;;;26.50;46.68;98908.78;6977121;28;20556;-82
2022/06/27 13:54:34;;;;;;;2.00;1.90;;;;;;;26.85;45.90;98911.69;6971364;28;20203;-81
2022/06/27 13:57:55;;;;;;;2.10;2.00;;;;;;;26.53;46.63;98891.56;6949134;28;20211;-81
2022/06/27 14:01:17;;;;;;;2.83;2.23;;;;;;;26.90;46.80;98910.78;6958918;28;20176;-83
2022/06/27 14:04:39;;;;;;;2.33;2.13;;;;;;;26.40;46.24;98840.66;6967097;28;20207;-81
2022/06/27 14:08:02;;;;;;;2.10;1.90;;;;;;;25.89;47.03;98836.38;6952496;28;20203;-82
2022/06/27 14:11:23;;;;;;;2.53;1.90;;;;;;;27.09;46.66;98915.09;6948287;28;20231;-81
2022/06/27 14:14:45;;;;;;;2.07;1.93;;;;;;;27.45;44.90;98887.44;6951535;28;20210;-81
2022/06/27 14:18:06;;;;;;;2.07;1.90;;;;;;;26.56;45.18;98835.69;6952321;28;20211;-81
2022/06/27 14:21:28;;;;;;;2.23;1.97;;;;;;;26.97;44.93;98900.13;6977766;28;20249;-81
2022/06/27 14:24:51;;;;;;;2.40;1.90;;;;;;;27.14;44.87;98914.94;6976443;28;20202;-80
2022/06/27 14:28:13;;;;;;;2.83;2.00;;;;;;;27.04;44.68;98886.69;6976673;28;20214;-81
2022/06/27 14:31:35;;;;;;;2.20;2.00;;;;;;;26.67;45.54;98876.66;6979268;28;20690;-81
2022/06/27 14:34:56;;;;;;;2.50;2.30;;;;;;;26.96;45.71;98898.50;6982541;28;20285;-82
2022/06/27 14:38:18;;;;;;;3.27;2.10;;;;;;;27.15;45.03;98927.69;6980813;28;20202;-81
2022/06/27 14:41:42;;;;;;;2.77;2.20;;;;;;;27.59;44.40;98921.44;6980372;28;20762;-79
2022/06/27 14:45:04;;;;;;;2.40;2.20;;;;;;;27.38;45.22;98921.13;6979195;28;20238;-81
2022/06/27 14:48:26;;;;;;;2.50;2.30;;;;;;;26.67;45.94;98886.91;6979731;28;20214;-83
2022/06/27 14:51:48;;;;;;;2.33;1.70;;;;;;;26.96;45.84;98920.63;6975333;28;20229;-82
2022/06/27 14:55:09;;;;;;;2.00;1.80;;;;;;;26.85;46.59;98933.03;6979854;28;20195;-81
2022/06/27 14:58:33;;;;;;;2.33;1.93;;;;;;;26.61;46.11;98930.44;6978936;28;20206;-82
2022/06/27 15:01:55;;;;;;;3.90;1.77;;;;;;;26.88;45.25;98927.69;6978981;28;20244;-82
2022/06/27 15:05:17;;;;;;;1.80;1.70;;;;;;;26.99;45.64;98940.19;6979526;28;20214;-82
2022/06/27 15:08:41;;;;;;;1.97;1.77;;;;;;;26.87;45.57;98931.59;6979771;28;20285;-83
2022/06/27 15:12:03;;;;;;;2.33;1.80;;;;;;;27.03;45.45;98891.41;6980301;28;20225;-82
2022/06/27 15:15:26;;;;;;;2.00;1.90;;;;;;;26.84;45.99;98917.56;6978888;28;20195;-81
2022/06/27 15:18:48;;;;;;;1.87;1.77;;;;;;;27.05;45.07;98902.16;6976976;28;20249;-80
2022/06/27 15:22:09;;;;;;;2.03;1.93;;;;;;;26.22;46.61;98904.31;6975829;28;20249;-80
2022/06/27 15:25:31;;;;;;;2.63;2.10;;;;;;;27.01;45.40;98890.09;6979106;28;20209;-81
2022/06/27 15:28:53;;;;;;;2.70;2.27;;;;;;;27.16;44.77;98865.69;6979345;28;20220;-80
2022/06/27 15:32:16;;;;;;;2.40;2.20;;;;;;;27.02;45.54;98889.75;6979138;28;20223;-80
2022/06/27 15:35:38;;;;;;;2.47;2.27;;;;;;;27.40;45.27;98901.41;6981206;28;20217;-82
2022/06/27 15:39:00;;;;;;;2.07;1.97;;;;;;;26.90;45.23;98889.44;6981024;28;20203;-82
2022/06/27 15:42:21;;;;;;;2.00;1.90;;;;;;;26.63;45.98;98855.44;6979877;28;20235;-82
2022/06/27 15:45:43;;;;;;;3.23;2.10;;;;;;;27.04;45.90;98931.78;6980167;28;20260;-82
2022/06/27 15:49:06;;;;;;;2.83;2.10;;;;;;;27.12;45.39;98914.44;6980790;28;20650;-82
2022/06/27 15:52:29;;;;;;;2.30;2.20;;;;;;;27.50;44.90;98929.72;6980400;28;20597;-82
2022/06/27 15:55:50;;;;;;;2.83;2.27;;;;;;;26.73;46.36;98905.84;6980698;28;20275;-83
2022/06/27 15:59:12;;;;;;;2.43;2.23;;;;;;;26.31;47.26;98903.31;6980130;28;20284;-82
2022/06/27 16:02:33;;;;;;;2.93;2.20;;;;;;;26.72;46.91;98898.69;6979797;28;20254;-80
2022/06/27 16:05:57;;;;;;;2.17;2.07;;;;;;;26.52;47.78;98907.34;6984843;28;20206;-81